Time;durP1;ratioP1;P1;durP2;ratioP2;P2;SDS_P1;SDS_P2;PMS_P1;PMS_P2;Temp;Humidity;BMP_temperature;BMP_pressure;BME280_temperature;BME280_humidity;BME280_pressure;Samples;Min_cycle;Max_cycle;Signal;HPM_P1;HPM_P2
2022/10/20 00:01:02;;;;;;;0.10;0.10;;;;;;;;;;6199201;22;20012;-95
2022/10/20 00:03:31;;;;;;;0.10;0.10;;;;;;;;;;6199317;22;20463;-95
2022/10/20 00:06:21;;;;;;;0.10;0.10;;;;;;;;;;6199664;22;20018;-95
2022/10/20 00:09:15;;;;;;;;;;;;;;;;;;;;;
2022/10/20 00:17:48;;;;;;;;;;;;;;;;;;;;;
2022/10/20 00:23:30;;;;;;;0.10;0.10;;;;;;;;;;6232236;22;20046;-96
2022/10/20 00:33:21;;;;;;;;;;;;;;;;;;;;;
2022/10/20 00:51:52;;;;;;;0.30;0.30;;;;;;;;;;6035843;23;20062;-94
2022/10/20 00:54:20;;;;;;;0.10;0.10;;;;;;;;;;6103287;23;20013;-95
2022/10/20 01:05:58;;;;;;;0.10;0.10;;;;;;;;;;6233171;22;20016;-95
2022/10/20 01:08:25;;;;;;;0.10;0.10;;;;;;;;;;6199084;22;20043;-95
2022/10/20 01:10:54;;;;;;;0.10;0.10;;;;;;;;;;6199233;22;20016;-95
2022/10/20 01:13:41;;;;;;;0.20;0.20;;;;;;;;;;6198994;22;20018;-95
2022/10/20 01:16:32;;;;;;;;;;;;;;;;;;;;;
2022/10/20 01:19:36;;;;;;;;;;;;;;;;;;;;;
2022/10/20 01:22:24;;;;;;;0.10;0.10;;;;;;;;;;6193411;22;20019;-95
2022/10/20 01:25:14;;;;;;;0.10;0.10;;;;;;;;;;6199701;22;20099;-96
2022/10/20 01:27:49;;;;;;;0.10;0.10;;;;;;;;;;6223133;22;20016;-94
2022/10/20 01:30:31;;;;;;;0.10;0.10;;;;;;;;;;6201369;22;20019;-95
2022/10/20 01:33:09;;;;;;;0.10;0.10;;;;;;;;;;6201383;22;20349;-96
2022/10/20 01:35:47;;;;;;;0.10;0.10;;;;;;;;;;6200546;22;20099;-95
2022/10/20 01:38:36;;;;;;;0.10;0.10;;;;;;;;;;6225958;22;20019;-96
2022/10/20 01:41:02;;;;;;;0.10;0.10;;;;;;;;;;6225982;22;20022;-95
2022/10/20 01:43:40;;;;;;;;;;;;;;;;;;;;;
2022/10/20 01:49:02;;;;;;;0.10;0.10;;;;;;;;;;6236141;22;20016;-95
2022/10/20 01:51:30;;;;;;;0.10;0.10;;;;;;;;;;6206311;23;20337;-94
2022/10/20 01:53:58;;;;;;;0.10;0.10;;;;;;;;;;6200034;23;20027;-96
2022/10/20 01:57:05;;;;;;;0.10;0.10;;;;;;;;;;6196403;23;20012;-95
2022/10/20 02:13:42;;;;;;;0.10;0.10;;;;;;;;;;6092542;23;20025;-96
2022/10/20 06:20:29;;;;;;;0.20;0.20;;;;;;;;;;6258936;22;20019;-94
2022/10/20 06:22:55;;;;;;;0.32;0.32;;;;;;;;;;6199834;22;20054;-94
2022/10/20 06:25:21;;;;;;;0.20;0.20;;;;;;;;;;6200292;22;20015;-93
2022/10/20 06:27:47;;;;;;;0.10;0.10;;;;;;;;;;6194728;23;20043;-94
2022/10/20 06:30:13;;;;;;;2.90;0.28;;;;;;;;;;6197304;23;20063;-94
2022/10/20 06:32:39;;;;;;;0.17;0.17;;;;;;;;;;6198484;23;20016;-94
2022/10/20 06:35:05;;;;;;;0.10;0.10;;;;;;;;;;6196264;23;20016;-94
2022/10/20 06:37:32;;;;;;;0.10;0.10;;;;;;;;;;6193803;23;20325;-93
2022/10/20 06:39:58;;;;;;;0.30;0.30;;;;;;;;;;6194242;23;20429;-93
2022/10/20 06:42:24;;;;;;;0.10;0.10;;;;;;;;;;6193964;23;20015;-94
2022/10/20 06:44:50;;;;;;;0.10;0.10;;;;;;;;;;6194261;23;20012;-93
2022/10/20 06:47:16;;;;;;;0.20;0.20;;;;;;;;;;6193704;23;20492;-94
2022/10/20 06:49:42;;;;;;;0.35;0.35;;;;;;;;;;6193871;23;20016;-94
2022/10/20 06:52:10;;;;;;;0.10;0.10;;;;;;;;;;6193837;23;20016;-94
2022/10/20 06:54:36;;;;;;;0.17;0.17;;;;;;;;;;6194483;23;20460;-95
2022/10/20 06:57:02;;;;;;;0.10;0.10;;;;;;;;;;6194192;23;20528;-95
2022/10/20 06:59:28;;;;;;;0.10;0.10;;;;;;;;;;6193684;23;20021;-91
2022/10/20 07:01:54;;;;;;;0.20;0.20;;;;;;;;;;6192915;23;20429;-91
2022/10/20 07:04:20;;;;;;;0.10;0.10;;;;;;;;;;6218604;23;20555;-90
2022/10/20 07:06:47;;;;;;;0.32;0.20;;;;;;;;;;6192862;23;20024;-91
2022/10/20 07:09:16;;;;;;;0.10;0.10;;;;;;;;;;6193116;23;20016;-92
2022/10/20 07:11:44;;;;;;;0.20;0.20;;;;;;;;;;6193890;23;20099;-92
2022/10/20 07:14:11;;;;;;;0.40;0.40;;;;;;;;;;6194124;23;20012;-95
2022/10/20 07:16:37;;;;;;;0.20;0.20;;;;;;;;;;6199961;23;20008;-94
2022/10/20 07:19:03;;;;;;;1.55;0.20;;;;;;;;;;6219609;23;20020;-92
2022/10/20 07:21:35;;;;;;;0.30;0.30;;;;;;;;;;6225429;23;20016;-93
2022/10/20 07:24:10;;;;;;;0.10;0.10;;;;;;;;;;6223420;23;20437;-93
2022/10/20 07:26:38;;;;;;;0.77;0.77;;;;;;;;;;6249022;23;20092;-91
2022/10/20 07:29:04;;;;;;;0.40;0.40;;;;;;;;;;6223493;23;20016;-93
2022/10/20 07:31:31;;;;;;;0.20;0.20;;;;;;;;;;6225393;23;20016;-93
2022/10/20 07:33:57;;;;;;;0.10;0.10;;;;;;;;;;6223990;23;20012;-92
2022/10/20 07:36:24;;;;;;;0.20;0.20;;;;;;;;;;6231945;22;20078;-93
2022/10/20 07:38:51;;;;;;;0.10;0.10;;;;;;;;;;6259621;22;20047;-92
2022/10/20 07:41:17;;;;;;;0.10;0.10;;;;;;;;;;6258695;22;20019;-92
2022/10/20 07:43:43;;;;;;;0.50;0.25;;;;;;;;;;6259996;22;20007;-93
2022/10/20 07:46:09;;;;;;;0.10;0.10;;;;;;;;;;6260383;22;20019;-92
2022/10/20 07:48:35;;;;;;;0.10;0.10;;;;;;;;;;6242416;22;20023;-95
2022/10/20 07:51:17;;;;;;;1.48;0.30;;;;;;;;;;6260866;22;20015;-94
2022/10/20 07:53:43;;;;;;;0.20;0.20;;;;;;;;;;6284432;22;20424;-94
2022/10/20 07:56:09;;;;;;;0.15;0.15;;;;;;;;;;6254096;22;20011;-93
2022/10/20 07:58:35;;;;;;;0.10;0.10;;;;;;;;;;6224390;22;20019;-93
2022/10/20 08:01:01;;;;;;;0.13;0.13;;;;;;;;;;6224827;22;20065;-91
2022/10/20 08:03:27;;;;;;;0.20;0.20;;;;;;;;;;6225149;22;20066;-93
2022/10/20 08:05:53;;;;;;;0.20;0.20;;;;;;;;;;6225300;22;20012;-93
2022/10/20 08:08:19;;;;;;;0.20;0.20;;;;;;;;;;6224879;22;20012;-92
2022/10/20 08:10:45;;;;;;;0.20;0.20;;;;;;;;;;6224903;22;20078;-93
2022/10/20 08:13:11;;;;;;;0.10;0.10;;;;;;;;;;6224999;22;20054;-94
2022/10/20 08:15:37;;;;;;;0.10;0.10;;;;;;;;;;6224903;22;20015;-93
2022/10/20 08:18:03;;;;;;;0.10;0.10;;;;;;;;;;6224965;22;20012;-95
2022/10/20 08:20:31;;;;;;;0.10;0.10;;;;;;;;;;6224588;22;20099;-93
2022/10/20 08:22:57;;;;;;;0.10;0.10;;;;;;;;;;6225219;22;20012;-95
2022/10/20 08:25:29;;;;;;;0.10;0.10;;;;;;;;;;6225950;22;20016;-93
2022/10/20 08:27:55;;;;;;;0.10;0.10;;;;;;;;;;6250004;22;20052;-93
2022/10/20 08:30:53;;;;;;;0.20;0.20;;;;;;;;;;6226441;22;20066;-96
2022/10/20 08:33:29;;;;;;;0.20;0.20;;;;;;;;;;6218222;22;20020;-94
2022/10/20 08:51:51;;;;;;;;;;;;;;;;;;;;;
2022/10/20 09:03:20;;;;;;;0.20;0.20;;;;;;;;;;6307112;22;20027;-95
2022/10/20 09:06:07;;;;;;;0.13;0.13;;;;;;;;;;6276537;22;20049;-93
2022/10/20 09:08:36;;;;;;;0.10;0.10;;;;;;;;;;6251422;22;20077;-96
2022/10/20 09:11:07;;;;;;;0.10;0.10;;;;;;;;;;6225567;22;20012;-95
2022/10/20 09:13:36;;;;;;;0.33;0.33;;;;;;;;;;6226238;22;20063;-96
2022/10/20 09:16:11;;;;;;;0.10;0.10;;;;;;;;;;6276331;22;20274;-95
2022/10/20 09:18:42;;;;;;;0.20;0.20;;;;;;;;;;6226412;22;20067;-95
2022/10/20 09:21:11;;;;;;;0.10;0.10;;;;;;;;;;6225583;22;20012;-95
2022/10/20 09:23:41;;;;;;;0.20;0.20;;;;;;;;;;6224649;22;20011;-95
2022/10/20 09:26:14;;;;;;;0.25;0.25;;;;;;;;;;6224686;22;20011;-95
2022/10/20 09:28:40;;;;;;;0.20;0.20;;;;;;;;;;6226626;22;20016;-94
2022/10/20 09:31:22;;;;;;;0.10;0.10;;;;;;;;;;6225684;22;20097;-94
2022/10/20 09:33:48;;;;;;;1.17;0.50;;;;;;;;;;6225649;22;20016;-96
2022/10/20 09:36:15;;;;;;;0.20;0.20;;;;;;;;;;6226947;22;20022;-93
2022/10/20 09:38:47;;;;;;;0.10;0.10;;;;;;;;;;6225860;22;20218;-92
2022/10/20 09:41:14;;;;;;;0.10;0.10;;;;;;;;;;6249903;22;20027;-94
2022/10/20 09:43:41;;;;;;;0.20;0.20;;;;;;;;;;6226290;22;20018;-94
2022/10/20 09:46:09;;;;;;;0.10;0.10;;;;;;;;;;6228732;22;20029;-92
2022/10/20 09:48:39;;;;;;;0.10;0.10;;;;;;;;;;6225009;22;20065;-93
2022/10/20 09:51:06;;;;;;;0.13;0.13;;;;;;;;;;6225258;22;20340;-92
2022/10/20 09:53:37;;;;;;;0.20;0.20;;;;;;;;;;6226163;22;20020;-93
2022/10/20 09:56:05;;;;;;;0.20;0.20;;;;;;;;;;6225392;22;20018;-95
2022/10/20 09:58:37;;;;;;;0.10;0.10;;;;;;;;;;6227467;22;20025;-94
2022/10/20 10:01:05;;;;;;;0.35;0.35;;;;;;;;;;6250339;22;20011;-92
2022/10/20 10:03:51;;;;;;;0.10;0.10;;;;;;;;;;6250668;22;20012;-92
2022/10/20 10:06:31;;;;;;;0.10;0.10;;;;;;;;;;6248905;22;20047;-92
2022/10/20 10:08:58;;;;;;;0.10;0.10;;;;;;;;;;6224120;22;20023;-94
2022/10/20 10:11:26;;;;;;;0.10;0.10;;;;;;;;;;6224314;22;20011;-93
2022/10/20 10:13:52;;;;;;;0.20;0.20;;;;;;;;;;6225122;22;20087;-94
2022/10/20 10:16:23;;;;;;;1.20;0.20;;;;;;;;;;6227532;22;20015;-96
2022/10/20 10:18:59;;;;;;;0.20;0.20;;;;;;;;;;6225512;22;20022;-95
2022/10/20 10:21:28;;;;;;;0.10;0.10;;;;;;;;;;6227097;22;20252;-94
2022/10/20 10:23:57;;;;;;;0.10;0.10;;;;;;;;;;6225489;22;20345;-94
2022/10/20 10:28:59;;;;;;;0.20;0.20;;;;;;;;;;6280756;22;20038;-92
2022/10/20 10:31:25;;;;;;;0.20;0.20;;;;;;;;;;6280151;22;20015;-92
2022/10/20 10:34:09;;;;;;;0.13;0.13;;;;;;;;;;6255244;22;20015;-93
2022/10/20 10:36:36;;;;;;;0.15;0.15;;;;;;;;;;6280631;22;20015;-92
2022/10/20 10:39:02;;;;;;;0.10;0.10;;;;;;;;;;6255723;22;20011;-92
2022/10/20 10:41:31;;;;;;;0.10;0.10;;;;;;;;;;6255006;22;20045;-92
2022/10/20 10:44:16;;;;;;;0.20;0.20;;;;;;;;;;6306261;22;20094;-95
2022/10/20 10:46:42;;;;;;;0.13;0.13;;;;;;;;;;6280778;22;20019;-94
2022/10/20 10:49:18;;;;;;;0.20;0.20;;;;;;;;;;6260964;22;20019;-96
2022/10/20 10:51:44;;;;;;;0.20;0.20;;;;;;;;;;6283958;22;20015;-93
2022/10/20 10:54:22;;;;;;;0.22;0.22;;;;;;;;;;6282631;22;20037;-90
2022/10/20 10:56:49;;;;;;;0.10;0.10;;;;;;;;;;6280969;22;20198;-95
2022/10/20 10:59:15;;;;;;;0.30;0.30;;;;;;;;;;6254640;22;20011;-93
2022/10/20 11:01:44;;;;;;;0.20;0.20;;;;;;;;;;6282202;22;20082;-93
2022/10/20 11:04:22;;;;;;;0.10;0.10;;;;;;;;;;6282331;22;20062;-93
2022/10/20 11:06:51;;;;;;;0.25;0.17;;;;;;;;;;6306295;22;20444;-94
2022/10/20 11:09:23;;;;;;;0.10;0.10;;;;;;;;;;6282611;22;20015;-92
2022/10/20 11:12:07;;;;;;;0.10;0.10;;;;;;;;;;6256668;22;20022;-93
2022/10/20 11:14:42;;;;;;;0.20;0.20;;;;;;;;;;6257087;22;20015;-93
2022/10/20 11:17:31;;;;;;;0.20;0.20;;;;;;;;;;6256618;22;20015;-93
2022/10/20 11:20:16;;;;;;;0.20;0.20;;;;;;;;;;6256125;22;20011;-93
2022/10/20 11:22:49;;;;;;;0.10;0.10;;;;;;;;;;6281778;22;20225;-93
2022/10/20 11:25:35;;;;;;;0.25;0.25;;;;;;;;;;6281238;22;20007;-94
2022/10/20 11:28:01;;;;;;;0.10;0.10;;;;;;;;;;6281119;22;20015;-93
2022/10/20 11:30:27;;;;;;;0.20;0.20;;;;;;;;;;6256307;22;20077;-92
2022/10/20 11:32:58;;;;;;;0.63;0.20;;;;;;;;;;6256033;22;20037;-92
2022/10/20 11:35:30;;;;;;;0.30;0.30;;;;;;;;;;6255983;22;20019;-92
2022/10/20 11:38:04;;;;;;;0.20;0.20;;;;;;;;;;6283015;22;20015;-95
2022/10/20 11:40:31;;;;;;;0.20;0.20;;;;;;;;;;6261771;22;20014;-91
2022/10/20 11:43:04;;;;;;;0.10;0.10;;;;;;;;;;6281365;22;20103;-93
2022/10/20 11:45:36;;;;;;;0.10;0.10;;;;;;;;;;6255042;22;20084;-92
2022/10/20 11:48:16;;;;;;;0.20;0.20;;;;;;;;;;6282367;22;20064;-92
2022/10/20 11:51:21;;;;;;;0.20;0.20;;;;;;;;;;6285439;22;20015;-91
2022/10/20 11:56:56;;;;;;;0.20;0.20;;;;;;;;;;6301801;22;20023;-89
2022/10/20 11:59:22;;;;;;;0.20;0.20;;;;;;;;;;6256171;22;20090;-90
2022/10/20 12:01:58;;;;;;;0.10;0.10;;;;;;;;;;6281964;22;20019;-91
2022/10/20 12:04:45;;;;;;;1.73;0.35;;;;;;;;;;6281020;22;20029;-92
2022/10/20 12:18:34;;;;;;;0.20;0.20;;;;;;;;;;6291937;22;20016;-95
2022/10/20 12:21:04;;;;;;;0.10;0.10;;;;;;;;;;6224409;23;20009;-95
2022/10/20 12:23:47;;;;;;;0.20;0.20;;;;;;;;;;6250790;22;20018;-93
2022/10/20 12:29:37;;;;;;;0.20;0.20;;;;;;;;;;6312145;22;20025;-93
2022/10/20 12:32:24;;;;;;;0.25;0.25;;;;;;;;;;6281763;22;20086;-91
2022/10/20 12:34:50;;;;;;;0.10;0.10;;;;;;;;;;6281933;22;20053;-92
2022/10/20 12:37:17;;;;;;;0.17;0.17;;;;;;;;;;6282246;22;20011;-91
2022/10/20 12:39:43;;;;;;;0.10;0.10;;;;;;;;;;6255538;22;20086;-91
2022/10/20 12:42:13;;;;;;;0.10;0.10;;;;;;;;;;6255170;22;20084;-89
2022/10/20 12:44:41;;;;;;;0.10;0.10;;;;;;;;;;6256160;22;20015;-93
2022/10/20 12:47:07;;;;;;;1.55;0.30;;;;;;;;;;6307505;22;20030;-90
2022/10/20 12:49:34;;;;;;;0.45;0.25;;;;;;;;;;6281767;22;20011;-91
2022/10/20 12:52:00;;;;;;;0.77;0.73;;;;;;;;;;6256440;22;20015;-92
2022/10/20 12:54:38;;;;;;;0.20;0.20;;;;;;;;;;6256077;22;20018;-91
2022/10/20 12:57:25;;;;;;;0.57;0.30;;;;;;;;;;6255746;22;20094;-92
2022/10/20 12:59:51;;;;;;;0.10;0.10;;;;;;;;;;6257040;22;20012;-92
2022/10/20 13:02:17;;;;;;;0.10;0.10;;;;;;;;;;6256226;22;20022;-93
2022/10/20 13:04:56;;;;;;;0.10;0.10;;;;;;;;;;6282130;22;20007;-94
2022/10/20 13:07:41;;;;;;;0.15;0.15;;;;;;;;;;6281235;22;20011;-92
2022/10/20 13:10:28;;;;;;;0.20;0.20;;;;;;;;;;6281578;22;20343;-92
2022/10/20 13:13:00;;;;;;;0.20;0.20;;;;;;;;;;6282307;22;20022;-92
2022/10/20 13:15:42;;;;;;;0.32;0.25;;;;;;;;;;6281741;22;20015;-92
2022/10/20 13:18:11;;;;;;;0.10;0.10;;;;;;;;;;6281073;22;20370;-91
2022/10/20 13:20:43;;;;;;;0.10;0.10;;;;;;;;;;6281129;22;20328;-91
2022/10/20 13:23:09;;;;;;;0.10;0.10;;;;;;;;;;6256403;22;20007;-91
2022/10/20 13:25:36;;;;;;;0.10;0.10;;;;;;;;;;6255883;22;20119;-91
2022/10/20 13:28:11;;;;;;;0.30;0.30;;;;;;;;;;6255088;22;20047;-90
2022/10/20 13:30:52;;;;;;;0.20;0.20;;;;;;;;;;6280766;22;20015;-90
2022/10/20 13:33:30;;;;;;;0.10;0.10;;;;;;;;;;6280554;22;20454;-93
2022/10/20 13:36:00;;;;;;;0.43;0.32;;;;;;;;;;6254920;22;20332;-90
2022/10/20 13:38:30;;;;;;;0.10;0.10;;;;;;;;;;6280398;22;20019;-91
2022/10/20 13:41:13;;;;;;;0.10;0.10;;;;;;;;;;6255610;22;20503;-92
2022/10/20 13:43:42;;;;;;;0.13;0.13;;;;;;;;;;6280707;22;20376;-91
2022/10/20 13:46:11;;;;;;;0.28;0.28;;;;;;;;;;6254819;22;20017;-90
2022/10/20 13:48:37;;;;;;;0.10;0.10;;;;;;;;;;6279849;22;20094;-91
2022/10/20 13:51:10;;;;;;;0.10;0.10;;;;;;;;;;6279450;22;20053;-90
2022/10/20 13:53:40;;;;;;;0.20;0.20;;;;;;;;;;6280092;22;20050;-91
2022/10/20 13:56:06;;;;;;;0.13;0.13;;;;;;;;;;6279818;22;20015;-94
2022/10/20 13:58:32;;;;;;;0.20;0.20;;;;;;;;;;6280040;22;20022;-91
2022/10/20 14:01:00;;;;;;;0.10;0.10;;;;;;;;;;6280210;22;20372;-90
2022/10/20 14:03:26;;;;;;;0.20;0.20;;;;;;;;;;6279739;22;20015;-89
2022/10/20 14:05:53;;;;;;;0.10;0.10;;;;;;;;;;6280595;22;20459;-93
2022/10/20 14:08:20;;;;;;;0.20;0.20;;;;;;;;;;6254473;22;20452;-93
2022/10/20 14:10:49;;;;;;;0.20;0.20;;;;;;;;;;6254983;22;20011;-91
2022/10/20 14:13:22;;;;;;;0.40;0.17;;;;;;;;;;6305853;22;20089;-92
2022/10/20 14:15:53;;;;;;;0.10;0.10;;;;;;;;;;6254283;22;20015;-91
2022/10/20 14:18:23;;;;;;;0.20;0.20;;;;;;;;;;6254279;22;20436;-91
2022/10/20 14:20:59;;;;;;;0.10;0.10;;;;;;;;;;6254509;22;20102;-93
2022/10/20 14:23:25;;;;;;;0.10;0.10;;;;;;;;;;6280192;22;20070;-94
2022/10/20 14:25:51;;;;;;;0.20;0.20;;;;;;;;;;6254851;22;20090;-93
2022/10/20 14:28:18;;;;;;;0.10;0.10;;;;;;;;;;6255153;22;20019;-91
2022/10/20 14:30:44;;;;;;;0.38;0.38;;;;;;;;;;6279968;22;20011;-92
2022/10/20 14:33:14;;;;;;;0.20;0.20;;;;;;;;;;6253931;22;20038;-92
2022/10/20 14:35:41;;;;;;;0.20;0.20;;;;;;;;;;6254822;22;20015;-92
2022/10/20 14:38:15;;;;;;;0.10;0.10;;;;;;;;;;6254138;22;20388;-92
2022/10/20 14:40:41;;;;;;;0.10;0.10;;;;;;;;;;6280178;22;20008;-92
2022/10/20 14:43:11;;;;;;;0.30;0.30;;;;;;;;;;6254545;22;20282;-91
2022/10/20 14:45:37;;;;;;;0.20;0.20;;;;;;;;;;6254119;22;20018;-91
2022/10/20 14:48:04;;;;;;;0.10;0.10;;;;;;;;;;6253768;22;20428;-91
2022/10/20 14:50:30;;;;;;;0.10;0.10;;;;;;;;;;6254566;22;20015;-91
2022/10/20 14:52:56;;;;;;;0.30;0.30;;;;;;;;;;6279841;22;20633;-93
2022/10/20 14:55:41;;;;;;;0.25;0.25;;;;;;;;;;6254486;22;20015;-91
2022/10/20 14:58:25;;;;;;;0.10;0.10;;;;;;;;;;6254165;22;20456;-91
2022/10/20 15:00:52;;;;;;;0.10;0.10;;;;;;;;;;6279872;22;20008;-92
2022/10/20 15:03:17;;;;;;;0.20;0.20;;;;;;;;;;6254429;22;20011;-92
2022/10/20 15:05:44;;;;;;;0.20;0.20;;;;;;;;;;6254298;22;20015;-92
2022/10/20 15:08:27;;;;;;;0.35;0.35;;;;;;;;;;6254205;22;20309;-92
2022/10/20 15:10:59;;;;;;;0.20;0.20;;;;;;;;;;6255847;22;20079;-96
2022/10/20 15:13:26;;;;;;;0.10;0.10;;;;;;;;;;6279888;22;20018;-89
2022/10/20 15:15:52;;;;;;;0.10;0.10;;;;;;;;;;6279427;22;20018;-91
2022/10/20 15:18:19;;;;;;;0.20;0.20;;;;;;;;;;6253537;22;20051;-92
2022/10/20 15:20:46;;;;;;;1.27;1.27;;;;;;;;;;6254702;22;20011;-92
2022/10/20 15:23:18;;;;;;;0.40;0.40;;;;;;;;;;6254524;22;20012;-91
2022/10/20 15:25:44;;;;;;;0.30;0.30;;;;;;;;;;6254494;22;20047;-90
2022/10/20 15:28:13;;;;;;;0.20;0.20;;;;;;;;;;6278947;22;20076;-90
2022/10/20 15:30:39;;;;;;;0.10;0.10;;;;;;;;;;6278480;22;20022;-90
2022/10/20 15:33:05;;;;;;;0.20;0.20;;;;;;;;;;6253075;22;20007;-90
2022/10/20 15:35:32;;;;;;;0.20;0.20;;;;;;;;;;6253178;22;20455;-88
2022/10/20 15:37:58;;;;;;;0.20;0.20;;;;;;;;;;6253151;22;20046;-88
2022/10/20 15:40:26;;;;;;;0.43;0.43;;;;;;;;;;6252593;22;20019;-90
2022/10/20 15:42:52;;;;;;;0.20;0.20;;;;;;;;;;6257610;22;20023;-90
2022/10/20 15:45:19;;;;;;;0.10;0.10;;;;;;;;;;6255686;22;20007;-91
2022/10/20 15:47:45;;;;;;;0.32;0.30;;;;;;;;;;6280704;22;20011;-90
2022/10/20 15:50:11;;;;;;;0.15;0.15;;;;;;;;;;6255065;22;20019;-90
2022/10/20 15:52:38;;;;;;;0.17;0.17;;;;;;;;;;6254734;22;20367;-90
2022/10/20 15:55:20;;;;;;;0.80;0.20;;;;;;;;;;6255254;22;20007;-90
2022/10/20 15:57:46;;;;;;;0.10;0.10;;;;;;;;;;6255633;22;20033;-89
2022/10/20 16:00:12;;;;;;;0.20;0.20;;;;;;;;;;6280696;22;20039;-92
2022/10/20 16:02:40;;;;;;;0.10;0.10;;;;;;;;;;6254976;22;20011;-92
2022/10/20 16:05:06;;;;;;;0.20;0.20;;;;;;;;;;6255383;22;20440;-94
2022/10/20 16:07:33;;;;;;;0.10;0.10;;;;;;;;;;6255749;22;20505;-93
2022/10/20 16:10:06;;;;;;;0.10;0.10;;;;;;;;;;6256223;22;20455;-94
2022/10/20 16:12:32;;;;;;;0.10;0.10;;;;;;;;;;6257089;22;20511;-93
2022/10/20 16:14:58;;;;;;;0.10;0.10;;;;;;;;;;6280586;22;20332;-91
2022/10/20 16:17:24;;;;;;;0.10;0.10;;;;;;;;;;6254902;22;20015;-91
2022/10/20 16:19:50;;;;;;;0.10;0.10;;;;;;;;;;6280923;22;20019;-91
2022/10/20 16:22:17;;;;;;;0.40;0.40;;;;;;;;;;6255875;22;20008;-92
2022/10/20 16:24:43;;;;;;;0.47;0.47;;;;;;;;;;6280867;22;20011;-92
2022/10/20 16:27:14;;;;;;;0.20;0.20;;;;;;;;;;6255652;22;20026;-91
2022/10/20 16:29:40;;;;;;;0.10;0.10;;;;;;;;;;6256624;22;20011;-92
2022/10/20 16:32:06;;;;;;;0.20;0.20;;;;;;;;;;6255993;22;20054;-93
2022/10/20 16:34:32;;;;;;;0.10;0.10;;;;;;;;;;6255235;22;20018;-92
2022/10/20 16:36:58;;;;;;;0.15;0.15;;;;;;;;;;6255229;22;20022;-93
2022/10/20 16:43:27;;;;;;;0.10;0.10;;;;;;;;;;6069159;23;20027;-93
2022/10/20 16:49:00;;;;;;;;;;;;;;;;;;;;;
2022/10/20 16:51:36;;;;;;;0.10;0.10;;;;;;;;;;6283554;22;20080;-92
2022/10/20 16:54:02;;;;;;;0.20;0.20;;;;;;;;;;6255368;22;20085;-90
2022/10/20 17:03:23;;;;;;;0.10;0.10;;;;;;;;;;6262970;22;20037;-94
2022/10/20 17:06:24;;;;;;;;;;;;;;;;;;;;;
2022/10/20 17:09:06;;;;;;;;;;;;;;;;;;;;;
2022/10/20 17:11:35;;;;;;;0.10;0.10;;;;;;;;;;6285691;22;20313;-94
2022/10/20 17:14:03;;;;;;;0.10;0.10;;;;;;;;;;6258418;22;20072;-94
2022/10/20 17:16:30;;;;;;;0.10;0.10;;;;;;;;;;6290414;22;20178;-92
2022/10/20 17:18:56;;;;;;;0.10;0.10;;;;;;;;;;6283137;22;20012;-93
2022/10/20 17:21:30;;;;;;;0.10;0.10;;;;;;;;;;6257676;22;20015;-94
2022/10/20 17:32:07;;;;;;;0.10;0.10;;;;;;;;;;6301647;22;20138;-94
2022/10/20 17:34:36;;;;;;;0.10;0.10;;;;;;;;;;6285879;22;20098;-94
2022/10/20 17:37:31;;;;;;;0.10;0.10;;;;;;;;;;6256518;22;20031;-94
2022/10/20 17:40:30;;;;;;;;;;;;;;;;;;;;;
2022/10/20 17:43:00;;;;;;;0.10;0.10;;;;;;;;;;6307217;22;20375;-94
2022/10/20 17:56:15;;;;;;;0.20;0.20;;;;;;;;;;5985441;24;20024;-92
2022/10/20 18:06:59;;;;;;;0.10;0.10;;;;;;;;;;6288399;22;20074;-94
2022/10/20 18:28:26;;;;;;;0.10;0.10;;;;;;;;;;6269674;22;20015;-93
2022/10/20 18:30:52;;;;;;;0.10;0.10;;;;;;;;;;6281558;22;20038;-92
2022/10/20 19:14:35;;;;;;;0.10;0.10;;;;;;;;;;6289557;22;20316;-95
2022/10/20 19:16:40;;;;;;;0.10;0.10;;;;;;;;;;6272930;22;20026;-94
2022/10/20 19:43:14;;;;;;;;;;;;;;;;;;;;;
2022/10/20 19:56:51;;;;;;;0.40;0.40;;;;;;;;;;6248532;22;20019;-94
2022/10/20 20:19:23;;;;;;;0.10;0.10;;;;;;;;;;6195230;23;20048;-94
2022/10/20 20:29:33;;;;;;;0.88;0.40;;;;;;;;;;6082751;23;20234;-96
2022/10/20 20:32:00;;;;;;;0.20;0.20;;;;;;;;;;6092836;23;20427;-95
2022/10/20 20:35:15;;;;;;;;;;;;;;;;;;;;;
2022/10/20 20:38:27;;;;;;;;;;;;;;;;;;;;;
2022/10/20 20:50:02;;;;;;;1.02;0.20;;;;;;;;;;6246850;23;20314;-96
2022/10/20 20:52:28;;;;;;;0.40;0.40;;;;;;;;;;6195249;23;20066;-94
2022/10/20 20:54:54;;;;;;;0.20;0.20;;;;;;;;;;6170105;23;20090;-93
2022/10/20 20:57:20;;;;;;;0.63;0.63;;;;;;;;;;6164784;23;20097;-92
2022/10/20 20:59:47;;;;;;;0.30;0.30;;;;;;;;;;6164751;23;20044;-92
2022/10/20 21:02:13;;;;;;;0.10;0.10;;;;;;;;;;6164850;23;20009;-91
2022/10/20 21:04:39;;;;;;;0.13;0.13;;;;;;;;;;6167352;23;20386;-90
2022/10/20 21:07:06;;;;;;;0.10;0.10;;;;;;;;;;6165657;23;20091;-90
2022/10/20 21:09:32;;;;;;;0.10;0.10;;;;;;;;;;6165512;23;20026;-92
2022/10/20 21:11:59;;;;;;;0.10;0.10;;;;;;;;;;6165896;23;20337;-92
2022/10/20 21:14:25;;;;;;;0.10;0.10;;;;;;;;;;6176015;23;20017;-92
2022/10/20 21:16:53;;;;;;;0.20;0.20;;;;;;;;;;6176251;23;20051;-92
2022/10/20 21:19:19;;;;;;;0.10;0.10;;;;;;;;;;6166057;23;20095;-94
2022/10/20 21:21:56;;;;;;;0.10;0.10;;;;;;;;;;6164355;23;20013;-93
2022/10/20 21:24:23;;;;;;;0.40;0.13;;;;;;;;;;6166441;23;20013;-93
2022/10/20 21:26:52;;;;;;;0.40;0.40;;;;;;;;;;6165407;23;20015;-93
2022/10/20 21:29:18;;;;;;;0.10;0.10;;;;;;;;;;6189379;23;20016;-94
2022/10/20 21:31:44;;;;;;;0.52;0.50;;;;;;;;;;6165213;23;20024;-94
2022/10/20 21:34:10;;;;;;;0.22;0.22;;;;;;;;;;6164883;23;20096;-95
2022/10/20 21:36:38;;;;;;;0.20;0.20;;;;;;;;;;6164968;23;20275;-95
2022/10/20 21:39:07;;;;;;;0.20;0.20;;;;;;;;;;6164910;23;20059;-93
2022/10/20 21:44:45;;;;;;;0.32;0.32;;;;;;;;;;6183445;23;20390;-95
2022/10/20 21:47:11;;;;;;;0.10;0.10;;;;;;;;;;6165314;23;20008;-96
2022/10/20 21:49:37;;;;;;;0.17;0.17;;;;;;;;;;6186383;23;20081;-95
2022/10/20 21:52:06;;;;;;;0.10;0.10;;;;;;;;;;6189574;23;20016;-94
2022/10/20 21:54:32;;;;;;;0.10;0.10;;;;;;;;;;6189105;23;20450;-94
2022/10/20 21:57:05;;;;;;;0.20;0.20;;;;;;;;;;6164095;23;20450;-95
2022/10/20 21:59:34;;;;;;;0.10;0.10;;;;;;;;;;6190924;23;20012;-96
2022/10/20 22:02:00;;;;;;;0.40;0.40;;;;;;;;;;6188743;23;20013;-95
2022/10/20 22:04:29;;;;;;;0.20;0.20;;;;;;;;;;6188676;23;20016;-95
2022/10/20 22:07:01;;;;;;;0.10;0.10;;;;;;;;;;6190713;23;20048;-96
2022/10/20 22:09:54;;;;;;;0.10;0.10;;;;;;;;;;6189233;23;20017;-96
2022/10/20 22:12:23;;;;;;;0.10;0.10;;;;;;;;;;6189479;23;20017;-96
2022/10/20 22:14:52;;;;;;;0.20;0.20;;;;;;;;;;6189738;23;20020;-95
2022/10/20 22:17:51;;;;;;;;;;;;;;;;;;;;;
2022/10/20 22:20:17;;;;;;;0.10;0.10;;;;;;;;;;6207410;23;20096;-95
2022/10/20 22:23:12;;;;;;;0.20;0.20;;;;;;;;;;6190565;23;20015;-96
2022/10/20 22:25:50;;;;;;;;;;;;;;;;;;;;;
2022/10/20 22:28:19;;;;;;;0.20;0.20;;;;;;;;;;6192496;23;20446;-95
2022/10/20 22:34:18;;;;;;;0.10;0.10;;;;;;;;;;6158309;23;20172;-96
2022/10/20 22:36:46;;;;;;;0.10;0.10;;;;;;;;;;6189184;23;20019;-95
2022/10/20 22:39:38;;;;;;;0.30;0.30;;;;;;;;;;6191361;23;20019;-96
2022/10/20 22:56:41;;;;;;;;;;;;;;;;;;;;;
2022/10/20 22:59:18;;;;;;;;;;;;;;;;;;;;;
2022/10/20 23:01:55;;;;;;;0.30;0.30;;;;;;;;;;6229407;22;20011;-95
2022/10/20 23:04:21;;;;;;;0.10;0.10;;;;;;;;;;6201043;22;20039;-96
2022/10/20 23:06:50;;;;;;;0.10;0.10;;;;;;;;;;6202018;22;20016;-95
2022/10/20 23:09:36;;;;;;;;;;;;;;;;;;;;;
2022/10/20 23:12:03;;;;;;;0.30;0.30;;;;;;;;;;6229361;22;20016;-95
2022/10/20 23:15:08;;;;;;;;;;;;;;;;;;;;;
2022/10/20 23:20:50;;;;;;;0.20;0.20;;;;;;;;;;6252776;22;20020;-95
2022/10/20 23:23:31;;;;;;;;;;;;;;;;;;;;;
2022/10/20 23:26:00;;;;;;;0.10;0.10;;;;;;;;;;6251520;22;20448;-96
2022/10/20 23:28:29;;;;;;;0.20;0.20;;;;;;;;;;6201203;22;20023;-92
2022/10/20 23:31:08;;;;;;;0.20;0.20;;;;;;;;;;6200760;22;20388;-94
2022/10/20 23:33:37;;;;;;;0.35;0.35;;;;;;;;;;6206336;22;20051;-94
2022/10/20 23:36:03;;;;;;;0.10;0.10;;;;;;;;;;6201761;22;20015;-95
2022/10/20 23:41:15;;;;;;;0.25;0.25;;;;;;;;;;6230224;22;20022;-95
2022/10/20 23:43:45;;;;;;;0.30;0.30;;;;;;;;;;6201912;22;20034;-95
2022/10/20 23:49:34;;;;;;;;;;;;;;;;;;;;;
2022/10/20 23:52:10;;;;;;;0.75;0.25;;;;;;;;;;6229225;22;20015;-95
2022/10/20 23:54:58;;;;;;;0.22;0.22;;;;;;;;;;6205447;22;20051;-94
2022/10/20 23:58:05;;;;;;;0.10;0.10;;;;;;;;;;6269120;22;20077;-96
